Terminal Aerodrome Forecast
Issued by NWS Charleston, SC

Home | Current Version | Previous Version | Text Only | Print | Product List | Glossary On
Versions: 1 2 3 4 5 6 7 8 9 10 11 12 13 14 15 16 17 18 19 20 21 22 23 24
000
FTUS42 KCHS 200700 AAA
TAFSAV
TAF AMD
KSAV 200739Z 2008/2106 01010KT P6SM VCSH OVC010
      TEMPO 2009/2013 OVC008
     FM201400 01015G25KT P6SM SCT008 OVC015
     FM201700 01015G25KT P6SM SCT015 BKN020
     FM210000 36011KT P6SM BKN035=

USA.gov is the U.S. government's official web portal to all federal, state and local government web resources and services.